Time;durP1;ratioP1;P1;durP2;ratioP2;P2;SDS_P1;SDS_P2;PMS_P1;PMS_P2;Temp;Humidity;BMP_temperature;BMP_pressure;BME280_temperature;BME280_humidity;BME280_pressure;Samples;Min_cycle;Max_cycle;Signal;HPM_P1;HPM_P2
2022/12/24 00:03:33;;;;;;;;;;;;;;;8.21;100;100517.7;;;;-80
2022/12/24 00:08:33;;;;;;;;;;;;;;;8.2;100;100524;;;;-80
2022/12/24 00:13:33;;;;;;;;;;;;;;;8.2;100;100528.3;;;;-80
2022/12/24 00:18:33;;;;;;;;;;;;;;;8.18;100;100529.7;;;;-80
2022/12/24 00:23:14;;;;;;;26.4;3.1;;;;;;;;;;;;;-78
2022/12/24 00:23:33;;;;;;;;;;;;;;;8.21;100;100548.6;;;;-80
2022/12/24 00:28:33;;;;;;;;;;;;;;;8.22;100;100552.5;;;;-80
2022/12/24 00:33:33;;;;;;;;;;;;;;;8.2;100;100558.4;;;;-79
2022/12/24 00:38:33;;;;;;;;;;;;;;;8.16;100;100561;;;;-80
2022/12/24 00:43:33;;;;;;;;;;;;;;;8.13;100;100565.2;;;;-80
2022/12/24 00:48:33;;;;;;;;;;;;;;;8.12;100;100579.4;;;;-80
2022/12/24 00:53:14;;;;;;;17.8;2.7;;;;;;;;;;;;;-75
2022/12/24 00:53:33;;;;;;;;;;;;;;;8.08;100;100580.5;;;;-74
2022/12/24 00:58:33;;;;;;;;;;;;;;;8.05;100;100590.9;;;;-75
2022/12/24 01:03:39;;;;;;;;;;;;;;;8.01;100;100592;;;;-74
2022/12/24 01:08:33;;;;;;;;;;;;;;;7.96;100;100605.2;;;;-80
2022/12/24 01:13:33;;;;;;;;;;;;;;;7.93;100;100617.2;;;;-80
2022/12/24 01:18:33;;;;;;;;;;;;;;;7.92;100;100621.8;;;;-79
2022/12/24 01:23:14;;;;;;;29.3;3;;;;;;;;;;;;;-73
2022/12/24 01:23:33;;;;;;;;;;;;;;;7.94;100;100633.2;;;;-73
2022/12/24 01:28:34;;;;;;;;;;;;;;;7.91;100;100640.2;;;;-74
2022/12/24 01:33:34;;;;;;;;;;;;;;;7.93;100;100642.1;;;;-74
2022/12/24 01:38:33;;;;;;;;;;;;;;;7.95;100;100649.8;;;;-74
2022/12/24 01:43:34;;;;;;;;;;;;;;;7.97;100;100661.8;;;;-73
2022/12/24 01:48:37;;;;;;;;;;;;;;;7.96;100;100672.1;;;;-73
2022/12/24 01:53:15;;;;;;;23.3;3.1;;;;;;;;;;;;;-73
2022/12/24 01:53:34;;;;;;;;;;;;;;;7.98;100;100668.3;;;;-74
2022/12/24 01:58:35;;;;;;;;;;;;;;;7.97;100;100675.4;;;;-74
2022/12/24 02:03:33;;;;;;;;;;;;;;;7.94;100;100670.6;;;;-73
2022/12/24 02:08:42;;;;;;;;;;;;;;;7.9;100;100677.2;;;;-73
2022/12/24 02:13:33;;;;;;;;;;;;;;;7.82;100;100680.4;;;;-74
2022/12/24 02:18:36;;;;;;;;;;;;;;;7.76;100;100690;;;;-74
2022/12/24 02:23:35;;;;;;;18.6;2.9;;;;;;;;;;;;;-73
2022/12/24 02:24:02;;;;;;;;;;;;;;;7.7;100;100703.7;;;;-74
2022/12/24 02:28:40;;;;;;;;;;;;;;;7.66;100;100712.3;;;;-73
2022/12/24 02:33:38;;;;;;;;;;;;;;;7.6;100;100721.2;;;;-73
2022/12/24 02:38:35;;;;;;;;;;;;;;;7.57;100;100728.4;;;;-74
2022/12/24 02:43:36;;;;;;;;;;;;;;;7.54;100;100741.5;;;;-73
2022/12/24 02:48:34;;;;;;;;;;;;;;;7.54;100;100745.8;;;;-74
2022/12/24 02:53:16;;;;;;;25.8;2.9;;;;;;;;;;;;;-75
2022/12/24 02:53:34;;;;;;;;;;;;;;;7.55;100;100742.1;;;;-73
2022/12/24 02:58:40;;;;;;;;;;;;;;;7.53;100;100746.9;;;;-73
2022/12/24 03:03:38;;;;;;;;;;;;;;;7.51;100;100744.2;;;;-74
2022/12/24 03:08:41;;;;;;;;;;;;;;;7.51;100;100756.5;;;;-74
2022/12/24 03:13:33;;;;;;;;;;;;;;;7.51;100;100755.1;;;;-73
2022/12/24 03:18:33;;;;;;;;;;;;;;;7.51;100;100755.9;;;;-73
2022/12/24 03:23:16;;;;;;;22.9;2.8;;;;;;;;;;;;;-74
2022/12/24 03:23:33;;;;;;;;;;;;;;;7.52;100;100756;;;;-74
2022/12/24 03:28:33;;;;;;;;;;;;;;;7.52;100;100763.6;;;;-74
2022/12/24 03:33:33;;;;;;;;;;;;;;;7.51;100;100763.7;;;;-74
2022/12/24 03:38:33;;;;;;;;;;;;;;;7.49;100;100772.8;;;;-73
2022/12/24 03:43:33;;;;;;;;;;;;;;;7.47;100;100776.3;;;;-73
2022/12/24 03:48:35;;;;;;;;;;;;;;;7.45;100;100776.2;;;;-74
2022/12/24 03:53:16;;;;;;;22.2;2.8;;;;;;;;;;;;;-73
2022/12/24 03:53:33;;;;;;;;;;;;;;;7.48;100;100786.4;;;;-74
2022/12/24 03:58:33;;;;;;;;;;;;;;;7.55;100;100793.9;;;;-74
2022/12/24 04:03:33;;;;;;;;;;;;;;;7.58;100;100794.2;;;;-73
2022/12/24 04:08:33;;;;;;;;;;;;;;;7.6;100;100792.1;;;;-73
2022/12/24 04:13:33;;;;;;;;;;;;;;;7.65;100;100797.6;;;;-73
2022/12/24 04:18:34;;;;;;;;;;;;;;;7.67;100;100796;;;;-73
2022/12/24 04:23:17;;;;;;;23.6;2.5;;;;;;;;;;;;;-74
2022/12/24 04:23:33;;;;;;;;;;;;;;;7.68;100;100796.6;;;;-74
2022/12/24 04:28:33;;;;;;;;;;;;;;;7.7;100;100816.3;;;;-73
2022/12/24 04:33:33;;;;;;;;;;;;;;;7.73;100;100815;;;;-73
2022/12/24 04:38:33;;;;;;;;;;;;;;;7.74;100;100815.1;;;;-74
2022/12/24 04:43:33;;;;;;;;;;;;;;;7.76;100;100822.4;;;;-73
2022/12/24 04:48:33;;;;;;;;;;;;;;;7.8;100;100823.3;;;;-74
2022/12/24 04:53:17;;;;;;;24.4;2.4;;;;;;;;;;;;;-73
2022/12/24 04:53:33;;;;;;;;;;;;;;;7.84;100;100825.5;;;;-73
2022/12/24 04:58:33;;;;;;;;;;;;;;;7.91;100;100822.1;;;;-74
2022/12/24 05:03:34;;;;;;;;;;;;;;;7.95;100;100837.1;;;;-74
2022/12/24 05:08:33;;;;;;;;;;;;;;;7.99;100;100845.3;;;;-73
2022/12/24 05:13:34;;;;;;;;;;;;;;;8.01;100;100841.3;;;;-73
2022/12/24 05:18:33;;;;;;;;;;;;;;;8.02;100;100838;;;;-74
2022/12/24 05:28:33;;;;;;;;;;;;;;;8.08;100;100843.9;;;;-73
2022/12/24 05:33:33;;;;;;;;;;;;;;;8.12;100;100846.7;;;;-73
2022/12/24 05:38:33;;;;;;;;;;;;;;;8.12;100;100854.3;;;;-74
2022/12/24 05:43:33;;;;;;;;;;;;;;;8.13;100;100852;;;;-73
2022/12/24 05:48:33;;;;;;;;;;;;;;;8.15;100;100853.6;;;;-74
2022/12/24 05:53:18;;;;;;;23.3;2.7;;;;;;;;;;;;;-73
2022/12/24 05:53:33;;;;;;;;;;;;;;;8.18;100;100856.3;;;;-74
2022/12/24 05:58:33;;;;;;;;;;;;;;;8.19;100;100858.4;;;;-73
2022/12/24 06:03:33;;;;;;;;;;;;;;;8.21;100;100855.3;;;;-74
2022/12/24 06:08:33;;;;;;;;;;;;;;;8.22;100;100857.4;;;;-74
2022/12/24 06:13:33;;;;;;;;;;;;;;;8.23;100;100863;;;;-74
2022/12/24 06:18:33;;;;;;;;;;;;;;;8.25;100;100873.3;;;;-74
2022/12/24 06:23:19;;;;;;;28.5;3.2;;;;;;;;;;;;;-74
2022/12/24 06:23:34;;;;;;;;;;;;;;;8.26;100;100880.2;;;;-75
2022/12/24 06:28:34;;;;;;;;;;;;;;;8.27;100;100874.7;;;;-74
2022/12/24 06:33:34;;;;;;;;;;;;;;;8.28;100;100894;;;;-74
2022/12/24 06:38:33;;;;;;;;;;;;;;;8.31;100;100890.4;;;;-72
2022/12/24 06:43:33;;;;;;;;;;;;;;;8.3;100;100888.1;;;;-73
2022/12/24 06:48:33;;;;;;;;;;;;;;;8.29;100;100897.8;;;;-73
2022/12/24 06:53:19;;;;;;;25.1;3.2;;;;;;;;;;;;;-72
2022/12/24 06:53:33;;;;;;;;;;;;;;;8.3;100;100889.1;;;;-73
2022/12/24 06:58:33;;;;;;;;;;;;;;;8.29;100;100894.8;;;;-73
2022/12/24 07:03:33;;;;;;;;;;;;;;;8.28;100;100909.6;;;;-74
2022/12/24 07:08:35;;;;;;;;;;;;;;;8.28;100;100906.3;;;;-73
2022/12/24 07:13:34;;;;;;;;;;;;;;;8.29;100;100920.8;;;;-73
2022/12/24 07:18:33;;;;;;;;;;;;;;;8.29;100;100939.5;;;;-74
2022/12/24 07:23:20;;;;;;;28.9;3;;;;;;;;;;;;;-73
2022/12/24 07:23:34;;;;;;;;;;;;;;;8.28;100;100938.8;;;;-74
2022/12/24 07:28:33;;;;;;;;;;;;;;;8.3;100;100940.6;;;;-74
2022/12/24 07:33:33;;;;;;;;;;;;;;;8.31;100;100942.3;;;;-74
2022/12/24 07:38:34;;;;;;;;;;;;;;;8.3;100;100957.9;;;;-74
2022/12/24 07:43:35;;;;;;;;;;;;;;;8.31;100;100964.4;;;;-74
2022/12/24 07:48:34;;;;;;;;;;;;;;;8.32;100;100974.4;;;;-74
2022/12/24 07:53:20;;;;;;;25.5;2.8;;;;;;;;;;;;;-73
2022/12/24 07:53:33;;;;;;;;;;;;;;;8.32;100;100988.4;;;;-75
2022/12/24 07:58:33;;;;;;;;;;;;;;;8.32;100;100997.2;;;;-73
2022/12/24 08:03:33;;;;;;;;;;;;;;;8.31;100;100999.4;;;;-73
2022/12/24 08:08:33;;;;;;;;;;;;;;;8.33;100;101011.5;;;;-73
2022/12/24 08:13:33;;;;;;;;;;;;;;;8.33;100;101020.3;;;;-73
2022/12/24 08:18:33;;;;;;;;;;;;;;;8.33;100;101027.4;;;;-74
2022/12/24 08:23:21;;;;;;;23.9;2.9;;;;;;;;;;;;;-75
2022/12/24 08:23:33;;;;;;;;;;;;;;;8.36;100;101035.5;;;;-74
2022/12/24 08:28:33;;;;;;;;;;;;;;;8.38;100;101046;;;;-74
2022/12/24 08:33:33;;;;;;;;;;;;;;;8.39;100;101063.4;;;;-73
2022/12/24 08:38:33;;;;;;;;;;;;;;;8.4;100;101061;;;;-73
2022/12/24 08:43:33;;;;;;;;;;;;;;;8.4;100;101065.9;;;;-73
2022/12/24 08:48:34;;;;;;;;;;;;;;;8.43;100;101071.4;;;;-75
2022/12/24 08:53:21;;;;;;;21.1;2.8;;;;;;;;;;;;;-74
2022/12/24 08:53:33;;;;;;;;;;;;;;;8.43;100;101083.2;;;;-74
2022/12/24 08:58:33;;;;;;;;;;;;;;;8.44;100;101088.4;;;;-73
2022/12/24 09:03:33;;;;;;;;;;;;;;;8.45;100;101094;;;;-73
2022/12/24 09:08:34;;;;;;;;;;;;;;;8.44;100;101105.4;;;;-73
2022/12/24 09:13:33;;;;;;;;;;;;;;;8.46;100;101117.1;;;;-73
2022/12/24 09:18:33;;;;;;;;;;;;;;;8.46;100;101114.4;;;;-73
2022/12/24 09:23:22;;;;;;;24.9;3.2;;;;;;;;;;;;;-74
2022/12/24 09:23:33;;;;;;;;;;;;;;;8.47;100;101120.7;;;;-74
2022/12/24 09:28:33;;;;;;;;;;;;;;;8.49;100;101122.4;;;;-73
2022/12/24 09:33:35;;;;;;;;;;;;;;;8.52;100;101133.3;;;;-73
2022/12/24 09:38:33;;;;;;;;;;;;;;;8.52;100;101144.1;;;;-73
2022/12/24 09:43:35;;;;;;;;;;;;;;;8.55;100;101155.5;;;;-73
2022/12/24 09:48:35;;;;;;;;;;;;;;;8.6;100;101156.9;;;;-73
2022/12/24 09:53:25;;;;;;;24.7;2.9;;;;;;;;;;;;;-74
2022/12/24 09:53:39;;;;;;;;;;;;;;;8.64;100;101169;;;;-73
2022/12/24 09:58:36;;;;;;;;;;;;;;;8.68;100;101166.5;;;;-73
2022/12/24 10:03:33;;;;;;;;;;;;;;;8.7;100;101170.4;;;;-73
2022/12/24 10:08:36;;;;;;;;;;;;;;;8.72;100;101172.2;;;;-73
2022/12/24 10:13:42;;;;;;;;;;;;;;;8.73;100;101178.2;;;;-73
2022/12/24 10:18:38;;;;;;;;;;;;;;;8.7;100;101178.4;;;;-73
2022/12/24 10:23:27;;;;;;;25.2;2.9;;;;;;;;;;;;;-73
2022/12/24 10:23:41;;;;;;;;;;;;;;;8.67;100;101178.4;;;;-73
2022/12/24 10:28:40;;;;;;;;;;;;;;;8.67;100;101182.8;;;;-73
2022/12/24 10:33:41;;;;;;;;;;;;;;;8.68;100;101187.7;;;;-73
2022/12/24 10:38:33;;;;;;;;;;;;;;;8.7;100;101185.2;;;;-75
2022/12/24 10:43:34;;;;;;;;;;;;;;;8.73;100;101183.8;;;;-75
2022/12/24 10:48:36;;;;;;;;;;;;;;;8.81;100;101188.9;;;;-72
2022/12/24 10:53:26;;;;;;;21.1;2.7;;;;;;;;;;;;;-73
2022/12/24 10:53:41;;;;;;;;;;;;;;;8.88;100;101195.5;;;;-74
2022/12/24 10:58:33;;;;;;;;;;;;;;;8.91;100;101204.6;;;;-73
2022/12/24 11:03:36;;;;;;;;;;;;;;;8.95;100;101208;;;;-78
2022/12/24 11:08:33;;;;;;;;;;;;;;;9.03;100;101220.4;;;;-79
2022/12/24 11:13:34;;;;;;;;;;;;;;;9.07;100;101225.6;;;;-78
2022/12/24 11:18:34;;;;;;;;;;;;;;;9.09;100;101237;;;;-79
2022/12/24 11:23:24;;;;;;;20.6;2.7;;;;;;;;;;;;;-79
2022/12/24 11:23:34;;;;;;;;;;;;;;;9.11;100;101227.2;;;;-77
2022/12/24 11:28:35;;;;;;;;;;;;;;;9.1;100;101236.1;;;;-80
2022/12/24 11:33:33;;;;;;;;;;;;;;;9.11;100;101230.5;;;;-79
2022/12/24 11:38:35;;;;;;;;;;;;;;;9.16;100;101238.4;;;;-78
2022/12/24 11:43:43;;;;;;;;;;;;;;;9.21;100;101231.4;;;;-77
2022/12/24 11:48:35;;;;;;;;;;;;;;;9.21;100;101237.4;;;;-78
2022/12/24 11:53:31;;;;;;;13.7;2;;;;;;;;;;;;;-74
2022/12/24 11:53:44;;;;;;;;;;;;;;;9.16;100;101235.5;;;;-75
2022/12/24 11:58:37;;;;;;;;;;;;;;;9.19;100;101234;;;;-75
2022/12/24 12:03:38;;;;;;;;;;;;;;;9.23;100;101230.4;;;;-74
2022/12/24 12:08:34;;;;;;;;;;;;;;;9.24;100;101243.8;;;;-74
2022/12/24 12:13:36;;;;;;;;;;;;;;;9.18;100;101251.8;;;;-73
2022/12/24 12:18:37;;;;;;;;;;;;;;;9.12;100;101251.9;;;;-74
2022/12/24 12:23:28;;;;;;;15.1;2.3;;;;;;;;;;;;;-73
2022/12/24 12:23:39;;;;;;;;;;;;;;;9.09;100;101253;;;;-73
2022/12/24 12:28:37;;;;;;;;;;;;;;;9.1;100;101267.5;;;;-74
2022/12/24 12:33:35;;;;;;;;;;;;;;;9.14;100;101278.4;;;;-74
2022/12/24 12:38:34;;;;;;;;;;;;;;;9.15;100;101282.5;;;;-74
2022/12/24 12:43:43;;;;;;;;;;;;;;;9.2;100;101291.6;;;;-75
2022/12/24 12:48:52;;;;;;;;;;;;;;;9.24;100;101301.8;;;;-74
2022/12/24 12:53:45;;;;;;;16.2;2.2;;;;;;;;;;;;;-73
2022/12/24 12:54:07;;;;;;;;;;;;;;;9.24;100;101306.1;;;;-73
2022/12/24 12:58:36;;;;;;;;;;;;;;;9.22;100;101308.4;;;;-74
2022/12/24 13:03:44;;;;;;;;;;;;;;;9.2;100;101314.5;;;;-74
2022/12/24 13:08:44;;;;;;;;;;;;;;;9.14;100;101313.1;;;;-75
2022/12/24 13:13:53;;;;;;;;;;;;;;;9.11;100;101321.8;;;;-73
2022/12/24 13:18:40;;;;;;;;;;;;;;;9.13;100;101324.9;;;;-73
2022/12/24 13:23:29;;;;;;;17.1;2.5;;;;;;;;;;;;;-74
2022/12/24 13:23:38;;;;;;;;;;;;;;;9.09;100;101329.9;;;;-74
2022/12/24 13:28:39;;;;;;;;;;;;;;;9.05;100;101327.8;;;;-75
2022/12/24 13:33:44;;;;;;;;;;;;;;;9.01;100;101343.7;;;;-72
2022/12/24 13:38:50;;;;;;;;;;;;;;;8.97;100;101346.9;;;;-73
2022/12/24 13:43:45;;;;;;;;;;;;;;;8.94;100;101353.4;;;;-74
2022/12/24 13:48:37;;;;;;;;;;;;;;;8.94;100;101363;;;;-73
2022/12/24 13:53:31;;;;;;;15.7;2.1;;;;;;;;;;;;;-74
2022/12/24 13:53:44;;;;;;;;;;;;;;;8.92;100;101374.3;;;;-74
2022/12/24 13:58:33;;;;;;;;;;;;;;;8.88;100;101379.1;;;;-74
2022/12/24 14:03:38;;;;;;;;;;;;;;;8.81;100;101374.6;;;;-73
2022/12/24 14:08:36;;;;;;;;;;;;;;;8.77;100;101386.8;;;;-74
2022/12/24 14:13:50;;;;;;;;;;;;;;;8.74;100;101383.9;;;;-74
2022/12/24 14:18:34;;;;;;;;;;;;;;;8.7;100;101384.3;;;;-74
2022/12/24 14:23:33;;;;;;;18.6;2.2;;;;;;;;;;;;;-74
2022/12/24 14:23:47;;;;;;;;;;;;;;;8.64;100;101387.9;;;;-74
2022/12/24 14:28:37;;;;;;;;;;;;;;;8.62;100;101381.3;;;;-73
2022/12/24 14:33:37;;;;;;;;;;;;;;;8.58;100;101385.9;;;;-74
2022/12/24 14:38:34;;;;;;;;;;;;;;;8.54;100;101388.2;;;;-74
2022/12/24 14:43:38;;;;;;;;;;;;;;;8.48;100;101389.4;;;;-74
2022/12/24 14:48:40;;;;;;;;;;;;;;;8.43;100;101394.3;;;;-73
2022/12/24 14:53:37;;;;;;;13.1;2.1;;;;;;;;;;;;;-74
2022/12/24 14:53:56;;;;;;;;;;;;;;;8.38;100;101404.3;;;;-74
2022/12/24 14:58:35;;;;;;;;;;;;;;;8.31;100;101409.5;;;;-75
2022/12/24 15:03:34;;;;;;;;;;;;;;;8.25;100;101413.9;;;;-74
2022/12/24 15:08:36;;;;;;;;;;;;;;;8.15;100;101418.1;;;;-74
2022/12/24 15:13:36;;;;;;;;;;;;;;;8.07;100;101428.3;;;;-74
2022/12/24 15:18:34;;;;;;;;;;;;;;;7.98;100;101433.7;;;;-74
2022/12/24 15:23:33;;;;;;;14.5;2;;;;;;;;;;;;;-73
2022/12/24 15:23:47;;;;;;;;;;;;;;;7.87;100;101437.8;;;;-74
2022/12/24 15:28:38;;;;;;;;;;;;;;;7.8;100;101440.9;;;;-73
2022/12/24 15:33:37;;;;;;;;;;;;;;;7.71;100;101446.1;;;;-73
2022/12/24 15:38:34;;;;;;;;;;;;;;;7.61;100;101450.6;;;;-74
2022/12/24 15:43:34;;;;;;;;;;;;;;;7.5;100;101453.9;;;;-74
2022/12/24 15:48:37;;;;;;;;;;;;;;;7.36;100;101460.6;;;;-74
2022/12/24 15:53:35;;;;;;;9.3;1.7;;;;;;;;;;;;;-74
2022/12/24 15:53:48;;;;;;;;;;;;;;;7.27;100;101465.9;;;;-74
2022/12/24 15:58:37;;;;;;;;;;;;;;;7.16;100;101470.3;;;;-73
2022/12/24 16:03:34;;;;;;;;;;;;;;;7.07;100;101485.6;;;;-74
2022/12/24 16:08:37;;;;;;;;;;;;;;;6.96;100;101491.5;;;;-74
2022/12/24 16:13:36;;;;;;;;;;;;;;;6.9;100;101498.9;;;;-73
2022/12/24 16:18:35;;;;;;;;;;;;;;;6.82;100;101480.3;;;;-74
2022/12/24 16:23:33;;;;;;;13.7;3.1;;;;;;;;;;;;;-73
2022/12/24 16:23:49;;;;;;;;;;;;;;;6.77;100;101480.7;;;;-73
2022/12/24 16:28:33;;;;;;;;;;;;;;;6.74;100;101490.6;;;;-73
2022/12/24 16:33:33;;;;;;;;;;;;;;;6.65;100;101486.8;;;;-74
2022/12/24 16:39:21;;;;;;;;;;;;;;;6.61;100;101482.8;;;;-78
2022/12/24 16:48:35;;;;;;;;;;;;;;;6.43;100;101476.1;;;;-79
2022/12/24 16:53:31;;;;;;;12.7;3.7;;;;;;;;;;;;;-79
2022/12/24 16:53:41;;;;;;;;;;;;;;;6.36;100;101477.7;;;;-77
2022/12/24 16:58:33;;;;;;;;;;;;;;;6.35;100;101480.1;;;;-79
2022/12/24 17:03:33;;;;;;;;;;;;;;;6.27;100;101481.3;;;;-74
2022/12/24 17:08:33;;;;;;;;;;;;;;;6.19;100;101493.7;;;;-75
2022/12/24 17:13:35;;;;;;;;;;;;;;;6.13;100;101493.8;;;;-74
2022/12/24 17:18:33;;;;;;;;;;;;;;;6.09;100;101490.4;;;;-74
2022/12/24 17:23:32;;;;;;;14.4;3.8;;;;;;;;;;;;;-75
2022/12/24 17:23:45;;;;;;;;;;;;;;;5.99;100;101488.3;;;;-74
2022/12/24 17:28:33;;;;;;;;;;;;;;;5.93;100;101474;;;;-75
2022/12/24 17:33:34;;;;;;;;;;;;;;;5.91;100;101470.9;;;;-75
2022/12/24 17:38:33;;;;;;;;;;;;;;;5.84;100;101468.6;;;;-77
2022/12/24 17:43:33;;;;;;;;;;;;;;;5.79;100;101458.5;;;;-74
2022/12/24 17:48:33;;;;;;;;;;;;;;;5.74;100;101458.9;;;;-74
2022/12/24 17:53:32;;;;;;;12.6;3.3;;;;;;;;;;;;;-79
2022/12/24 17:53:42;;;;;;;;;;;;;;;5.72;100;101457;;;;-79
2022/12/24 17:58:34;;;;;;;;;;;;;;;5.67;100;101464.3;;;;-78
2022/12/24 18:03:33;;;;;;;;;;;;;;;5.69;100;101475.8;;;;-75
2022/12/24 18:08:33;;;;;;;;;;;;;;;5.59;100;101477.1;;;;-74
2022/12/24 18:13:33;;;;;;;;;;;;;;;5.57;100;101481.8;;;;-74
2022/12/24 18:18:33;;;;;;;;;;;;;;;5.54;100;101476.9;;;;-74
2022/12/24 18:23:32;;;;;;;15.4;3.6;;;;;;;;;;;;;-74
2022/12/24 18:23:45;;;;;;;;;;;;;;;5.51;100;101479;;;;-75
2022/12/24 18:28:34;;;;;;;;;;;;;;;5.48;100;101471.4;;;;-74
2022/12/24 18:33:34;;;;;;;;;;;;;;;5.46;100;101468.5;;;;-73
2022/12/24 18:38:33;;;;;;;;;;;;;;;5.43;100;101474.3;;;;-74
2022/12/24 18:43:33;;;;;;;;;;;;;;;5.48;100;101484.8;;;;-74
2022/12/24 18:48:33;;;;;;;;;;;;;;;5.5;100;101489.6;;;;-74
2022/12/24 18:53:32;;;;;;;17.2;4.2;;;;;;;;;;;;;-72
2022/12/24 18:53:42;;;;;;;;;;;;;;;5.51;100;101479.9;;;;-73
2022/12/24 18:58:33;;;;;;;;;;;;;;;5.49;100;101481.3;;;;-73
2022/12/24 19:03:33;;;;;;;;;;;;;;;5.56;100;101492.3;;;;-73
2022/12/24 19:08:33;;;;;;;;;;;;;;;5.65;100;101497.1;;;;-74
2022/12/24 19:13:35;;;;;;;;;;;;;;;5.56;100;101506.8;;;;-74
2022/12/24 19:18:33;;;;;;;;;;;;;;;5.57;100;101509.9;;;;-74
2022/12/24 19:23:32;;;;;;;19.5;6;;;;;;;;;;;;;-74
2022/12/24 19:23:42;;;;;;;;;;;;;;;5.65;100;101494.8;;;;-75
2022/12/24 19:28:34;;;;;;;;;;;;;;;5.59;100;101487;;;;-75
2022/12/24 19:33:33;;;;;;;;;;;;;;;5.68;100;101487.4;;;;-73
2022/12/24 19:38:33;;;;;;;;;;;;;;;5.75;100;101496.2;;;;-74
2022/12/24 19:43:33;;;;;;;;;;;;;;;5.66;100;101496.7;;;;-73
2022/12/24 19:48:33;;;;;;;;;;;;;;;5.69;100;101507.4;;;;-75
2022/12/24 19:53:32;;;;;;;24.4;6.8;;;;;;;;;;;;;-74
2022/12/24 19:53:43;;;;;;;;;;;;;;;5.75;100;101504.1;;;;-74
2022/12/24 19:58:34;;;;;;;;;;;;;;;5.76;100;101496.9;;;;-74
2022/12/24 20:03:35;;;;;;;;;;;;;;;5.79;100;101492;;;;-74
2022/12/24 20:08:33;;;;;;;;;;;;;;;5.76;100;101489.1;;;;-74
2022/12/24 20:13:33;;;;;;;;;;;;;;;5.78;100;101492.7;;;;-73
2022/12/24 20:18:33;;;;;;;;;;;;;;;5.79;100;101482.2;;;;-73
2022/12/24 20:23:32;;;;;;;27.5;7.2;;;;;;;;;;;;;-73
2022/12/24 20:23:42;;;;;;;;;;;;;;;5.78;100;101473.2;;;;-75
2022/12/24 20:28:35;;;;;;;;;;;;;;;5.83;100;101472.9;;;;-75
2022/12/24 20:33:33;;;;;;;;;;;;;;;5.78;100;101471;;;;-75
2022/12/24 20:38:33;;;;;;;;;;;;;;;5.8;100;101476.3;;;;-73
2022/12/24 20:43:35;;;;;;;;;;;;;;;5.8;100;101471.5;;;;-73
2022/12/24 20:48:33;;;;;;;;;;;;;;;5.84;100;101465.3;;;;-73
2022/12/24 20:53:32;;;;;;;23.5;7.9;;;;;;;;;;;;;-74
2022/12/24 20:53:45;;;;;;;;;;;;;;;5.85;100;101455.5;;;;-74
2022/12/24 20:58:33;;;;;;;;;;;;;;;5.85;100;101457.5;;;;-73
2022/12/24 21:03:33;;;;;;;;;;;;;;;5.78;100;101459.6;;;;-74
2022/12/24 21:08:33;;;;;;;;;;;;;;;5.8;100;101449.4;;;;-74
2022/12/24 21:13:33;;;;;;;;;;;;;;;5.79;100;101455.9;;;;-75
2022/12/24 21:18:33;;;;;;;;;;;;;;;5.74;100;101469.4;;;;-75
2022/12/24 21:23:32;;;;;;;25.9;7;;;;;;;;;;;;;-75
2022/12/24 21:23:46;;;;;;;;;;;;;;;5.68;100;101457;;;;-75
2022/12/24 21:28:33;;;;;;;;;;;;;;;5.67;100;101458;;;;-74
2022/12/24 21:33:33;;;;;;;;;;;;;;;5.69;100;101441.3;;;;-75
2022/12/24 21:38:35;;;;;;;;;;;;;;;5.67;100;101447.1;;;;-75
2022/12/24 21:43:34;;;;;;;;;;;;;;;5.6;100;101451.8;;;;-73
2022/12/24 21:58:33;;;;;;;;;;;;;;;5.45;100;101445.1;;;;-73
2022/12/24 22:03:33;;;;;;;;;;;;;;;5.5;100;101452.8;;;;-73
2022/12/24 22:13:34;;;;;;;;;;;;;;;5.46;100;101441.1;;;;-73
2022/12/24 22:18:33;;;;;;;;;;;;;;;5.43;100;101442.2;;;;-74
2022/12/24 22:23:32;;;;;;;21.2;7.1;;;;;;;;;;;;;-74
2022/12/24 22:23:50;;;;;;;;;;;;;;;5.4;100;101447.1;;;;-74
2022/12/24 22:28:34;;;;;;;;;;;;;;;5.41;100;101450.9;;;;-74
2022/12/24 22:33:35;;;;;;;;;;;;;;;5.43;100;101452.9;;;;-74
2022/12/24 22:38:33;;;;;;;;;;;;;;;5.44;100;101456.4;;;;-74
2022/12/24 22:43:33;;;;;;;;;;;;;;;5.39;100;101451.7;;;;-74
2022/12/24 22:48:33;;;;;;;;;;;;;;;5.39;100;101446.4;;;;-74
2022/12/24 22:53:32;;;;;;;21.5;7.4;;;;;;;;;;;;;-73
2022/12/24 22:53:42;;;;;;;;;;;;;;;5.38;100;101452.4;;;;-74
2022/12/24 22:58:33;;;;;;;;;;;;;;;5.33;100;101465.9;;;;-73
2022/12/24 23:03:33;;;;;;;;;;;;;;;5.38;100;101472.5;;;;-75
2022/12/24 23:08:37;;;;;;;;;;;;;;;5.29;100;101487.9;;;;-75
2022/12/24 23:18:33;;;;;;;;;;;;;;;5.34;100;101487.5;;;;-75
2022/12/24 23:23:32;;;;;;;18.5;7.2;;;;;;;;;;;;;-74
2022/12/24 23:23:46;;;;;;;;;;;;;;;5.32;100;101482.2;;;;-74
2022/12/24 23:28:33;;;;;;;;;;;;;;;5.36;100;101469.8;;;;-74
2022/12/24 23:33:33;;;;;;;;;;;;;;;5.47;100;101461.8;;;;-74
2022/12/24 23:38:33;;;;;;;;;;;;;;;5.49;100;101471.2;;;;-73
2022/12/24 23:43:33;;;;;;;;;;;;;;;5.52;100;101467.8;;;;-73
2022/12/24 23:48:33;;;;;;;;;;;;;;;5.61;100;101456;;;;-74
2022/12/24 23:53:32;;;;;;;24.3;7.5;;;;;;;;;;;;;-73
2022/12/24 23:53:42;;;;;;;;;;;;;;;5.72;100;101444.6;;;;-73
2022/12/24 23:58:33;;;;;;;;;;;;;;;5.8;100;101439.2;;;;-73
